Terminal Aerodrome Forecast
Issued by NWS

Home | Current Version | Previous Version | Text Only | Print | Product List | Glossary On
Versions: 1 2 3 4 5 6 7 8 9 10 11 12 13 14 15 16
000
FTUS41 KBTV 181131
TAFMSS
TAF
KMSS 181131Z 1812/1912 06004KT P6SM SCT120 BKN200
     FM181600 06006KT P6SM BKN050 OVC100
     FM182000 06008KT P6SM VCSH SCT025 OVC040
     FM190100 07006KT P6SM -RA OVC025
     FM190300 07006KT 4SM -RA BR OVC015
     FM190800 09007KT 4SM -RA BR OVC008=

USA.gov is the U.S. government's official web portal to all federal, state and local government web resources and services.